Time;durP1;ratioP1;P1;durP2;ratioP2;P2;SDS_P1;SDS_P2;PMS_P1;PMS_P2;Temp;Humidity;BMP_temperature;BMP_pressure;BME280_temperature;BME280_humidity;BME280_pressure;Samples;Min_cycle;Max_cycle;Signal;HPM_P1;HPM_P2
2022/01/15 00:00:50;;;;;;;;;237.75;215.25;;;;;;;;5095387;28;8830;-73
2022/01/15 00:03:16;;;;;;;;;264.20;223.60;;;;;;;;5094147;28;8911;-73
2022/01/15 00:05:41;;;;;;;;;247.75;221.75;;;;;;;;5095447;28;8959;-73
2022/01/15 00:08:07;;;;;;;;;258.25;228.00;;;;;;;;5095452;28;11042;-73
2022/01/15 00:10:32;;;;;;;;;283.80;235.80;;;;;;;;5094268;28;8866;-73
2022/01/15 00:12:59;;;;;;;;;243.60;218.20;;;;;;;;5094769;28;8813;-73
2022/01/15 00:15:49;;;;;;;;;233.75;209.75;;;;;;;;5095576;28;8826;-73
2022/01/15 00:18:15;;;;;;;;;240.20;209.00;;;;;;;;5095086;28;8817;-73
2022/01/15 00:20:40;;;;;;;;;258.80;234.40;;;;;;;;5091835;28;8776;-73
2022/01/15 00:23:05;;;;;;;;;227.00;203.25;;;;;;;;5094991;28;9554;-73
2022/01/15 00:25:32;;;;;;;;;247.60;224.80;;;;;;;;5093829;28;8806;-73
2022/01/15 00:27:58;;;;;;;;;225.67;208.17;;;;;;;;5093106;28;8771;-73
2022/01/15 00:30:24;;;;;;;;;219.33;187.50;;;;;;;;5095434;28;8864;-73
2022/01/15 00:32:51;;;;;;;;;218.75;189.00;;;;;;;;5095074;28;8820;-73
2022/01/15 00:35:17;;;;;;;;;193.00;176.80;;;;;;;;5094976;28;8834;-73
2022/01/15 00:37:43;;;;;;;;;218.20;199.60;;;;;;;;5094843;28;8828;-73
2022/01/15 00:40:10;;;;;;;;;210.40;187.60;;;;;;;;5095094;28;8805;-73
2022/01/15 00:42:37;;;;;;;;;207.60;185.80;;;;;;;;5089336;28;8822;-73
2022/01/15 00:45:04;;;;;;;;;208.40;187.20;;;;;;;;5092192;28;11643;-73
2022/01/15 00:47:31;;;;;;;;;215.25;186.50;;;;;;;;5084631;28;8841;-73
2022/01/15 00:49:57;;;;;;;;;205.80;178.20;;;;;;;;5094605;28;8798;-73
2022/01/15 00:52:23;;;;;;;;;195.25;175.25;;;;;;;;5093428;28;8879;-73
2022/01/15 00:54:48;;;;;;;;;220.67;188.33;;;;;;;;5094790;28;8798;-73
2022/01/15 00:57:13;;;;;;;;;173.25;144.75;;;;;;;;5093027;28;8929;-73
2022/01/15 00:59:39;;;;;;;;;190.33;172.33;;;;;;;;5094844;28;8833;-73
2022/01/15 01:02:04;;;;;;;;;187.75;168.00;;;;;;;;5081382;28;9582;-73
2022/01/15 01:04:30;;;;;;;;;190.33;162.33;;;;;;;;5095050;28;8802;-73
2022/01/15 01:06:55;;;;;;;;;165.25;146.50;;;;;;;;5094457;28;9565;-73
2022/01/15 01:09:22;;;;;;;;;197.50;172.00;;;;;;;;5093418;28;8854;-73
2022/01/15 01:11:55;;;;;;;;;192.00;169.00;;;;;;;;5080802;28;8806;-73
2022/01/15 01:25:14;;;;;;;;;140.00;126.00;;;;;;;;5098051;28;10616;-73
2022/01/15 01:27:47;;;;;;;;;169.25;145.75;;;;;;;;5093796;28;9592;-73
2022/01/15 01:30:20;;;;;;;;;188.80;159.80;;;;;;;;5094521;28;8883;-73
2022/01/15 01:35:44;;;;;;;;;193.00;161.75;;;;;;;;5081456;28;9900;-73
2022/01/15 01:38:20;;;;;;;;;178.00;145.00;;;;;;;;5093914;28;8810;-73
2022/01/15 01:40:49;;;;;;;;;183.80;144.80;;;;;;;;5093927;28;12443;-73
2022/01/15 01:45:48;;;;;;;;;177.75;150.25;;;;;;;;5091990;28;8824;-73
2022/01/15 01:48:13;;;;;;;;;197.50;177.00;;;;;;;;5082353;28;11093;-73
2022/01/15 01:50:39;;;;;;;;;190.25;163.50;;;;;;;;5093705;28;8836;-73
2022/01/15 01:53:04;;;;;;;;;191.33;163.67;;;;;;;;5094364;28;8884;-73
2022/01/15 01:55:29;;;;;;;;;184.50;163.50;;;;;;;;5093858;28;8980;-73
2022/01/15 01:57:56;;;;;;;;;184.25;162.00;;;;;;;;5093452;28;8805;-73
2022/01/15 02:00:23;;;;;;;;;181.40;159.80;;;;;;;;5094048;28;8802;-73
2022/01/15 02:02:49;;;;;;;;;178.40;141.80;;;;;;;;5093863;28;8821;-73
2022/01/15 02:05:14;;;;;;;;;184.75;155.75;;;;;;;;5092299;28;8834;-73
2022/01/15 02:07:40;;;;;;;;;153.75;139.00;;;;;;;;5093633;28;8828;-73
2022/01/15 02:10:08;;;;;;;;;177.50;154.00;;;;;;;;5092482;28;8818;-73
2022/01/15 02:12:33;;;;;;;;;163.60;139.00;;;;;;;;5091953;28;8822;-73
2022/01/15 02:15:04;;;;;;;;;167.00;146.25;;;;;;;;5093528;28;8864;-73
2022/01/15 02:17:29;;;;;;;;;174.25;161.75;;;;;;;;5093938;28;8878;-73
2022/01/15 02:25:12;;;;;;;;;174.75;147.00;;;;;;;;5080396;28;8730;-73
2022/01/15 02:27:37;;;;;;;;;163.00;148.00;;;;;;;;5093195;28;8794;-73
2022/01/15 02:30:04;;;;;;;;;174.00;153.75;;;;;;;;5093776;28;8835;-73
2022/01/15 02:32:32;;;;;;;;;182.25;160.25;;;;;;;;5093473;28;8786;-73
2022/01/15 02:34:58;;;;;;;;;190.50;166.50;;;;;;;;5093419;28;9753;-73
2022/01/15 02:37:24;;;;;;;;;168.40;140.80;;;;;;;;5093687;28;8786;-73
2022/01/15 02:39:49;;;;;;;;;189.25;159.50;;;;;;;;5093488;28;8899;-72
2022/01/15 02:42:14;;;;;;;;;178.00;154.50;;;;;;;;5090678;28;8826;-72
2022/01/15 02:44:43;;;;;;;;;194.67;169.33;;;;;;;;5087584;28;8820;-72
2022/01/15 02:49:33;;;;;;;;;156.25;135.25;;;;;;;;5093057;28;8923;-72
2022/01/15 02:51:59;;;;;;;;;177.75;153.50;;;;;;;;5091109;28;8864;-73
2022/01/15 02:54:24;;;;;;;;;197.00;173.00;;;;;;;;5093706;28;8805;-73
2022/01/15 02:56:49;;;;;;;;;192.50;166.25;;;;;;;;5092534;28;8825;-73
2022/01/15 02:59:19;;;;;;;;;138.33;138.33;;;;;;;;5093646;28;8987;-73
2022/01/15 03:01:45;;;;;;;;;188.40;165.80;;;;;;;;5091406;28;9762;-73
2022/01/15 03:04:10;;;;;;;;;172.25;152.00;;;;;;;;5092088;28;8916;-73
2022/01/15 03:06:36;;;;;;;;;141.33;123.33;;;;;;;;5091969;28;8833;-73
2022/01/15 03:09:01;;;;;;;;;180.75;153.50;;;;;;;;5093235;28;8798;-73
2022/01/15 03:11:28;;;;;;;;;183.50;159.75;;;;;;;;5093110;28;8861;-73
2022/01/15 03:13:53;;;;;;;;;185.20;155.00;;;;;;;;5091360;28;8821;-73
2022/01/15 03:16:20;;;;;;;;;171.33;144.33;;;;;;;;5091772;28;8821;-73
2022/01/15 03:18:45;;;;;;;;;178.00;156.75;;;;;;;;5093221;28;8766;-72
2022/01/15 03:21:11;;;;;;;;;173.50;150.25;;;;;;;;5091137;28;8899;-72
2022/01/15 03:23:36;;;;;;;;;172.25;147.50;;;;;;;;5093231;28;8882;-72
2022/01/15 03:26:02;;;;;;;;;191.50;163.75;;;;;;;;5092574;28;9624;-72
2022/01/15 03:28:28;;;;;;;;;160.00;130.80;;;;;;;;5093091;28;8789;-72
2022/01/15 03:30:53;;;;;;;;;183.50;158.00;;;;;;;;5092416;28;8841;-72
2022/01/15 03:33:18;;;;;;;;;180.00;159.33;;;;;;;;5093442;28;8809;-73
2022/01/15 03:35:44;;;;;;;;;188.00;159.67;;;;;;;;5092452;28;8989;-73
2022/01/15 03:38:09;;;;;;;;;161.25;138.50;;;;;;;;5093144;28;8853;-72
2022/01/15 03:40:35;;;;;;;;;179.25;152.25;;;;;;;;5092936;28;8899;-72
2022/01/15 03:43:01;;;;;;;;;181.00;156.50;;;;;;;;5082307;28;8847;-72
2022/01/15 03:45:26;;;;;;;;;166.67;146.33;;;;;;;;5092540;28;12887;-73
2022/01/15 03:47:51;;;;;;;;;174.67;152.00;;;;;;;;5088561;28;8825;-72
2022/01/15 03:50:17;;;;;;;;;173.75;156.75;;;;;;;;5092721;28;9565;-73
2022/01/15 03:52:42;;;;;;;;;153.75;123.50;;;;;;;;5090951;28;8824;-72
2022/01/15 03:55:09;;;;;;;;;174.75;148.50;;;;;;;;5092472;28;8951;-72
2022/01/15 03:57:34;;;;;;;;;172.40;145.40;;;;;;;;5090671;28;8817;-73
2022/01/15 04:00:00;;;;;;;;;170.75;147.50;;;;;;;;5092217;28;8779;-72
2022/01/15 04:02:26;;;;;;;;;171.00;143.33;;;;;;;;5094830;28;8888;-72
2022/01/15 04:04:51;;;;;;;;;181.50;159.25;;;;;;;;5095940;28;8856;-72
2022/01/15 04:07:16;;;;;;;;;163.00;142.75;;;;;;;;5095797;28;8833;-72
2022/01/15 04:09:42;;;;;;;;;160.67;141.67;;;;;;;;5095801;28;8806;-72
2022/01/15 04:12:07;;;;;;;;;160.00;138.50;;;;;;;;5095202;28;8830;-73
2022/01/15 04:14:32;;;;;;;;;141.25;127.50;;;;;;;;5096012;28;8833;-73
2022/01/15 04:16:58;;;;;;;;;169.25;143.00;;;;;;;;5095192;28;8887;-72
2022/01/15 04:19:24;;;;;;;;;170.50;145.50;;;;;;;;5095853;28;8849;-73
2022/01/15 04:21:49;;;;;;;;;173.20;149.40;;;;;;;;5095257;28;8822;-73
2022/01/15 04:24:15;;;;;;;;;156.00;142.00;;;;;;;;5095583;28;8820;-73
2022/01/15 04:26:40;;;;;;;;;155.67;130.33;;;;;;;;5093544;28;8837;-73
2022/01/15 04:29:06;;;;;;;;;146.67;135.00;;;;;;;;5095482;28;8931;-73
2022/01/15 04:31:50;;;;;;;;;159.80;150.00;;;;;;;;5094034;28;9223;-73
2022/01/15 04:34:25;;;;;;;;;142.25;113.00;;;;;;;;5095443;28;8797;-72
2022/01/15 04:36:52;;;;;;;;;168.25;144.25;;;;;;;;5095303;28;8793;-72
2022/01/15 04:39:18;;;;;;;;;172.20;149.20;;;;;;;;5095128;28;8830;-72
2022/01/15 04:41:43;;;;;;;;;147.75;128.75;;;;;;;;5095190;28;9599;-72
2022/01/15 04:44:08;;;;;;;;;173.67;153.33;;;;;;;;5086598;28;8943;-72
2022/01/15 04:46:34;;;;;;;;;177.75;154.25;;;;;;;;5086573;28;8874;-72
2022/01/15 04:49:00;;;;;;;;;163.67;145.00;;;;;;;;5093022;28;8794;-73
2022/01/15 04:51:25;;;;;;;;;169.33;142.33;;;;;;;;5095057;28;11748;-72
2022/01/15 04:53:50;;;;;;;;;162.00;139.67;;;;;;;;5093290;28;8880;-73
2022/01/15 04:56:16;;;;;;;;;158.50;137.75;;;;;;;;5093143;28;8885;-72
2022/01/15 04:58:41;;;;;;;;;125.00;117.33;;;;;;;;5094684;28;8850;-73
2022/01/15 05:01:06;;;;;;;;;155.75;138.00;;;;;;;;5095126;28;9546;-72
2022/01/15 05:03:32;;;;;;;;;149.50;131.00;;;;;;;;5095120;28;8809;-72
2022/01/15 05:05:57;;;;;;;;;147.00;128.25;;;;;;;;5093185;28;8948;-72
2022/01/15 05:08:23;;;;;;;;;143.75;124.00;;;;;;;;5094634;28;8818;-73
2022/01/15 05:10:48;;;;;;;;;122.67;114.00;;;;;;;;5094785;28;8813;-72
2022/01/15 05:13:14;;;;;;;;;151.75;140.25;;;;;;;;5093331;28;8924;-73
2022/01/15 05:15:42;;;;;;;;;171.00;143.00;;;;;;;;5094701;28;9716;-73
2022/01/15 05:18:08;;;;;;;;;147.33;125.67;;;;;;;;5094726;28;8778;-73
2022/01/15 05:20:34;;;;;;;;;138.67;124.00;;;;;;;;5092420;28;11545;-73
2022/01/15 05:22:59;;;;;;;;;133.00;118.67;;;;;;;;5092961;28;8810;-73
2022/01/15 05:25:24;;;;;;;;;147.50;134.50;;;;;;;;5093266;28;8825;-73
2022/01/15 05:27:51;;;;;;;;;152.75;139.25;;;;;;;;5094079;28;8843;-73
2022/01/15 05:30:16;;;;;;;;;149.75;126.75;;;;;;;;5094452;28;8804;-73
2022/01/15 05:32:42;;;;;;;;;143.75;123.25;;;;;;;;5094163;28;11619;-73
2022/01/15 05:35:08;;;;;;;;;159.75;145.25;;;;;;;;5094369;28;8833;-73
2022/01/15 05:37:34;;;;;;;;;167.25;143.50;;;;;;;;5092805;28;8900;-73
2022/01/15 05:39:59;;;;;;;;;164.50;153.00;;;;;;;;5092727;28;11598;-73
2022/01/15 05:42:24;;;;;;;;;165.75;155.25;;;;;;;;5088414;28;8828;-73
2022/01/15 05:44:50;;;;;;;;;137.00;123.33;;;;;;;;5089904;28;8814;-73
2022/01/15 05:47:15;;;;;;;;;169.75;151.75;;;;;;;;5088949;28;8869;-73
2022/01/15 05:49:40;;;;;;;;;167.50;147.50;;;;;;;;5093827;28;8843;-72
2022/01/15 05:52:06;;;;;;;;;150.75;135.75;;;;;;;;5094421;28;8820;-72
2022/01/15 05:54:31;;;;;;;;;165.50;139.75;;;;;;;;5093868;28;8802;-72
2022/01/15 05:56:57;;;;;;;;;191.67;172.33;;;;;;;;5093189;28;8950;-73
2022/01/15 05:59:22;;;;;;;;;173.25;154.50;;;;;;;;5093922;28;8848;-73
2022/01/15 06:01:47;;;;;;;;;180.50;164.00;;;;;;;;5093923;28;8809;-73
2022/01/15 06:04:13;;;;;;;;;159.25;142.50;;;;;;;;5093936;28;8904;-73
2022/01/15 06:06:38;;;;;;;;;204.00;189.00;;;;;;;;5092137;28;9484;-73
2022/01/15 06:09:03;;;;;;;;;168.75;144.75;;;;;;;;5094004;28;8901;-72
2022/01/15 06:11:29;;;;;;;;;189.75;162.75;;;;;;;;5093632;28;8904;-74
2022/01/15 06:13:55;;;;;;;;;170.67;157.67;;;;;;;;5093472;28;8806;-73
2022/01/15 06:16:20;;;;;;;;;137.00;123.33;;;;;;;;5092369;28;8856;-73
2022/01/15 06:18:46;;;;;;;;;161.25;141.75;;;;;;;;5093576;28;9013;-73
2022/01/15 06:21:11;;;;;;;;;181.20;165.20;;;;;;;;5092209;28;9928;-73
2022/01/15 06:23:37;;;;;;;;;199.60;179.40;;;;;;;;5093637;28;8806;-72
2022/01/15 06:26:02;;;;;;;;;159.25;144.25;;;;;;;;5091848;28;8829;-72
2022/01/15 06:28:27;;;;;;;;;174.75;155.75;;;;;;;;5092169;28;8825;-73
2022/01/15 06:30:52;;;;;;;;;171.50;158.25;;;;;;;;5091716;28;8813;-73
2022/01/15 06:33:18;;;;;;;;;187.00;164.25;;;;;;;;5093984;28;8948;-72
2022/01/15 06:35:43;;;;;;;;;195.00;180.75;;;;;;;;5093308;28;8822;-72
2022/01/15 06:38:08;;;;;;;;;170.00;153.33;;;;;;;;5080184;28;8850;-72
2022/01/15 06:40:34;;;;;;;;;170.25;155.50;;;;;;;;5092184;28;8920;-72
2022/01/15 06:43:00;;;;;;;;;172.25;147.75;;;;;;;;5073324;28;9707;-73
2022/01/15 06:45:26;;;;;;;;;163.20;149.80;;;;;;;;5092651;28;8813;-73
2022/01/15 06:47:51;;;;;;;;;168.60;152.80;;;;;;;;5091440;28;8952;-73
2022/01/15 06:50:16;;;;;;;;;148.75;131.50;;;;;;;;5091545;28;8922;-73
2022/01/15 06:52:42;;;;;;;;;144.50;124.75;;;;;;;;5092294;28;9661;-73
2022/01/15 06:55:08;;;;;;;;;173.33;147.33;;;;;;;;5092966;28;8833;-72
2022/01/15 06:57:33;;;;;;;;;149.00;136.50;;;;;;;;5092910;28;8778;-73
2022/01/15 06:59:59;;;;;;;;;164.25;144.00;;;;;;;;5091098;28;11717;-73
2022/01/15 07:02:24;;;;;;;;;153.50;133.50;;;;;;;;5092966;28;8818;-73
2022/01/15 07:04:49;;;;;;;;;156.75;141.75;;;;;;;;5091036;28;8817;-73
2022/01/15 07:07:15;;;;;;;;;161.67;138.33;;;;;;;;5092538;28;8849;-73
2022/01/15 07:09:40;;;;;;;;;154.00;129.00;;;;;;;;5090340;28;8841;-73
2022/01/15 07:12:06;;;;;;;;;142.75;127.50;;;;;;;;5082813;28;8818;-73
2022/01/15 07:14:31;;;;;;;;;147.00;129.25;;;;;;;;5093133;28;8798;-73
2022/01/15 07:16:56;;;;;;;;;129.25;118.50;;;;;;;;5093004;28;8886;-72
2022/01/15 07:19:22;;;;;;;;;120.50;111.00;;;;;;;;5089941;28;8855;-73
2022/01/15 07:21:47;;;;;;;;;139.00;123.75;;;;;;;;5080644;28;8817;-73
2022/01/15 07:24:13;;;;;;;;;136.67;122.33;;;;;;;;5090725;28;8923;-73
2022/01/15 07:26:39;;;;;;;;;123.50;111.50;;;;;;;;5091893;28;8734;-73
2022/01/15 07:29:07;;;;;;;;;125.75;114.75;;;;;;;;5092375;28;11594;-73
2022/01/15 07:31:32;;;;;;;;;129.00;117.50;;;;;;;;5093128;28;8782;-72
2022/01/15 07:33:57;;;;;;;;;131.75;116.25;;;;;;;;5092068;28;8813;-73
2022/01/15 07:36:22;;;;;;;;;130.75;119.25;;;;;;;;5093249;28;8837;-73
2022/01/15 07:38:48;;;;;;;;;123.50;109.25;;;;;;;;5095964;28;8813;-73
2022/01/15 07:41:14;;;;;;;;;129.00;116.50;;;;;;;;5094627;28;8821;-73
2022/01/15 07:43:39;;;;;;;;;142.50;124.00;;;;;;;;5095386;28;8906;-73
2022/01/15 07:46:05;;;;;;;;;117.00;103.00;;;;;;;;5096089;28;8864;-73
2022/01/15 07:48:31;;;;;;;;;123.75;107.00;;;;;;;;5096001;28;8797;-73
2022/01/15 07:50:57;;;;;;;;;125.25;110.50;;;;;;;;5095570;28;8838;-72
2022/01/15 07:53:22;;;;;;;;;121.33;101.00;;;;;;;;5096129;28;8841;-73
2022/01/15 07:55:47;;;;;;;;;124.25;102.75;;;;;;;;5095499;28;8870;-72
2022/01/15 07:58:13;;;;;;;;;150.00;131.25;;;;;;;;5094912;28;8926;-72
2022/01/15 08:00:38;;;;;;;;;128.00;110.25;;;;;;;;5095859;28;8904;-72
2022/01/15 08:03:04;;;;;;;;;146.50;130.25;;;;;;;;5094233;28;8822;-72
2022/01/15 08:05:29;;;;;;;;;149.00;136.00;;;;;;;;5095635;28;9027;-71
2022/01/15 08:07:54;;;;;;;;;129.50;111.75;;;;;;;;5095352;28;8911;-72
2022/01/15 08:10:20;;;;;;;;;131.25;115.25;;;;;;;;5095974;28;8848;-71
2022/01/15 08:12:47;;;;;;;;;119.25;105.25;;;;;;;;5094930;28;8830;-72
2022/01/15 08:15:13;;;;;;;;;138.50;128.00;;;;;;;;5095713;28;8821;-72
2022/01/15 08:17:38;;;;;;;;;146.75;129.25;;;;;;;;5095753;28;8965;-72
2022/01/15 08:20:04;;;;;;;;;133.75;115.75;;;;;;;;5085574;28;8808;-72
2022/01/15 08:22:29;;;;;;;;;132.25;112.50;;;;;;;;5095495;28;8814;-72
2022/01/15 08:24:54;;;;;;;;;105.67;80.33;;;;;;;;5091622;28;8815;-72
2022/01/15 08:27:19;;;;;;;;;134.00;117.50;;;;;;;;5093467;28;8837;-72
2022/01/15 08:29:45;;;;;;;;;151.67;132.00;;;;;;;;5095428;28;8814;-72
2022/01/15 08:32:10;;;;;;;;;128.33;109.67;;;;;;;;5095456;28;8931;-72
2022/01/15 08:34:37;;;;;;;;;152.75;134.25;;;;;;;;5092872;28;8805;-72
2022/01/15 08:37:02;;;;;;;;;135.00;118.80;;;;;;;;5084518;28;8798;-72
2022/01/15 08:39:28;;;;;;;;;146.00;129.67;;;;;;;;5095589;28;8794;-72
2022/01/15 08:41:53;;;;;;;;;135.75;123.25;;;;;;;;5095163;28;8842;-72
2022/01/15 08:44:24;;;;;;;;;143.00;129.67;;;;;;;;5094436;28;9021;-72
2022/01/15 08:46:51;;;;;;;;;129.00;113.50;;;;;;;;5095407;28;8849;-72
2022/01/15 08:49:16;;;;;;;;;121.00;107.25;;;;;;;;5094000;28;8801;-72
2022/01/15 08:51:41;;;;;;;;;119.75;106.00;;;;;;;;5095168;28;8797;-72
2022/01/15 08:54:07;;;;;;;;;140.50;122.75;;;;;;;;5093797;28;8841;-72
2022/01/15 08:56:32;;;;;;;;;128.50;115.25;;;;;;;;5094927;28;8864;-72
2022/01/15 08:58:57;;;;;;;;;137.00;122.00;;;;;;;;5094841;28;8851;-72
2022/01/15 09:01:23;;;;;;;;;124.00;110.00;;;;;;;;5094791;28;8848;-72
2022/01/15 09:03:48;;;;;;;;;141.00;120.67;;;;;;;;5094810;28;8810;-72
2022/01/15 09:06:14;;;;;;;;;135.00;123.50;;;;;;;;5095074;28;9838;-72
2022/01/15 09:08:39;;;;;;;;;145.75;121.75;;;;;;;;5094916;28;9568;-72
2022/01/15 09:11:05;;;;;;;;;146.25;132.25;;;;;;;;5095057;28;8806;-72
2022/01/15 09:13:30;;;;;;;;;130.00;118.25;;;;;;;;5094685;28;8956;-72
2022/01/15 09:15:56;;;;;;;;;148.75;128.25;;;;;;;;5094778;28;9573;-72
2022/01/15 09:18:21;;;;;;;;;87.00;61.50;;;;;;;;5094802;28;8813;-72
2022/01/15 09:20:47;;;;;;;;;130.25;113.75;;;;;;;;5087739;28;9562;-72
2022/01/15 09:23:12;;;;;;;;;101.67;75.00;;;;;;;;5092484;28;8798;-73
2022/01/15 09:25:38;;;;;;;;;123.50;108.75;;;;;;;;5087781;28;8817;-74
2022/01/15 09:30:47;;;;;;;;;129.40;110.80;;;;;;;;5094326;28;8790;-74
2022/01/15 09:33:12;;;;;;;;;138.67;117.00;;;;;;;;5092414;28;8836;-73
2022/01/15 09:35:38;;;;;;;;;145.75;128.75;;;;;;;;5092772;28;8942;-68
2022/01/15 09:38:03;;;;;;;;;147.00;132.33;;;;;;;;5094452;28;8826;-71
2022/01/15 09:40:28;;;;;;;;;162.50;140.00;;;;;;;;5094397;28;8848;-71
2022/01/15 09:42:54;;;;;;;;;141.25;122.75;;;;;;;;5094187;28;9577;-71
2022/01/15 09:45:21;;;;;;;;;143.67;133.33;;;;;;;;5094227;28;8840;-71
2022/01/15 09:47:54;;;;;;;;;165.40;144.20;;;;;;;;5082571;28;8805;-71
2022/01/15 09:50:19;;;;;;;;;164.00;148.60;;;;;;;;5094453;28;8832;-71
2022/01/15 09:52:45;;;;;;;;;155.00;138.33;;;;;;;;5093717;28;8805;-71
2022/01/15 09:55:12;;;;;;;;;147.00;130.00;;;;;;;;5093870;28;11589;-72
2022/01/15 09:57:38;;;;;;;;;175.40;160.20;;;;;;;;5093495;28;8848;-71
2022/01/15 10:00:05;;;;;;;;;168.80;155.80;;;;;;;;5093737;28;8837;-71
2022/01/15 10:02:31;;;;;;;;;219.83;204.00;;;;;;;;5093871;28;8915;-71
2022/01/15 10:04:56;;;;;;;;;210.20;187.00;;;;;;;;5094061;28;8806;-72
2022/01/15 10:07:22;;;;;;;;;194.50;187.00;;;;;;;;5094145;28;8918;-73
2022/01/15 10:09:50;;;;;;;;;203.40;184.20;;;;;;;;5093971;28;8783;-72
2022/01/15 10:12:27;;;;;;;;;199.00;185.00;;;;;;;;5091535;28;8802;-72
2022/01/15 10:14:57;;;;;;;;;202.80;184.20;;;;;;;;5093740;28;8782;-71
2022/01/15 10:17:24;;;;;;;;;179.80;167.80;;;;;;;;5092001;28;8821;-71
2022/01/15 10:19:49;;;;;;;;;186.33;174.67;;;;;;;;5092610;28;8774;-71
2022/01/15 10:22:16;;;;;;;;;187.25;158.00;;;;;;;;5092775;28;8838;-70
2022/01/15 10:24:43;;;;;;;;;222.33;200.50;;;;;;;;5092004;28;8768;-71
2022/01/15 10:27:22;;;;;;;;;193.20;182.00;;;;;;;;5093362;28;8751;-71
2022/01/15 10:29:48;;;;;;;;;233.17;219.83;;;;;;;;5093453;28;11245;-73
2022/01/15 10:32:13;;;;;;;;;203.00;191.33;;;;;;;;5093501;28;8773;-71
2022/01/15 10:34:42;;;;;;;;;189.75;179.50;;;;;;;;5093090;28;8853;-71
2022/01/15 10:37:12;;;;;;;;;177.25;171.75;;;;;;;;5080538;28;8825;-72
2022/01/15 10:39:38;;;;;;;;;184.20;164.00;;;;;;;;5093128;28;8805;-72
2022/01/15 10:42:14;;;;;;;;;160.50;150.50;;;;;;;;5089922;28;8793;-72
2022/01/15 10:44:41;;;;;;;;;166.00;149.75;;;;;;;;5092923;28;8820;-72
2022/01/15 10:47:07;;;;;;;;;133.25;121.25;;;;;;;;5090862;28;8826;-72
2022/01/15 10:49:32;;;;;;;;;156.00;141.00;;;;;;;;5093128;28;8825;-72
2022/01/15 10:52:07;;;;;;;;;154.75;139.00;;;;;;;;5092509;28;8905;-72
2022/01/15 10:54:34;;;;;;;;;127.80;111.80;;;;;;;;5093556;28;8821;-72
2022/01/15 10:57:09;;;;;;;;;120.50;103.75;;;;;;;;5091617;28;8836;-72
2022/01/15 10:59:35;;;;;;;;;94.75;73.50;;;;;;;;5075972;28;8812;-72
2022/01/15 11:02:17;;;;;;;;;98.50;71.75;;;;;;;;5092581;28;8802;-72
2022/01/15 11:04:42;;;;;;;;;85.25;64.50;;;;;;;;5079430;28;8790;-72
2022/01/15 11:07:14;;;;;;;;;99.50;73.75;;;;;;;;5093466;28;8901;-72
2022/01/15 11:09:42;;;;;;;;;110.00;88.50;;;;;;;;5093342;28;8784;-74
2022/01/15 11:12:09;;;;;;;;;109.00;86.00;;;;;;;;5092373;28;8916;-73
2022/01/15 11:14:35;;;;;;;;;124.25;105.50;;;;;;;;5095536;28;9717;-72
2022/01/15 11:17:00;;;;;;;;;132.50;115.50;;;;;;;;5096520;28;8814;-72
2022/01/15 11:19:28;;;;;;;;;129.25;114.00;;;;;;;;5093827;28;8828;-72
2022/01/15 11:21:54;;;;;;;;;135.75;114.50;;;;;;;;5094540;28;9689;-72
2022/01/15 11:24:19;;;;;;;;;143.75;129.50;;;;;;;;5094946;28;8953;-72
2022/01/15 11:26:45;;;;;;;;;114.25;103.50;;;;;;;;5094372;28;8834;-72
2022/01/15 11:29:11;;;;;;;;;139.75;124.00;;;;;;;;5091998;28;8848;-72
2022/01/15 11:31:37;;;;;;;;;132.50;116.50;;;;;;;;5095974;28;12309;-72
2022/01/15 11:34:04;;;;;;;;;135.25;118.75;;;;;;;;5096431;28;8785;-72
2022/01/15 11:36:37;;;;;;;;;120.00;108.20;;;;;;;;5096449;28;8776;-72
2022/01/15 11:39:08;;;;;;;;;144.20;122.60;;;;;;;;5095475;28;8895;-72
2022/01/15 11:41:40;;;;;;;;;124.00;104.00;;;;;;;;5094978;28;8828;-72
2022/01/15 11:44:16;;;;;;;;;129.80;112.40;;;;;;;;5096413;28;8813;-72
2022/01/15 11:46:42;;;;;;;;;136.20;118.00;;;;;;;;5087547;28;8968;-72
2022/01/15 11:49:26;;;;;;;;;137.75;118.50;;;;;;;;5095993;28;9727;-72
2022/01/15 11:51:52;;;;;;;;;134.40;121.20;;;;;;;;5094406;28;8825;-72
2022/01/15 11:54:18;;;;;;;;;161.50;148.50;;;;;;;;5095091;28;8933;-72
2022/01/15 11:56:44;;;;;;;;;180.75;162.50;;;;;;;;5094161;28;8834;-72
2022/01/15 11:59:25;;;;;;;;;167.25;158.50;;;;;;;;5095970;28;8806;-72
2022/01/15 12:01:53;;;;;;;;;165.25;147.00;;;;;;;;5090674;28;8824;-72
2022/01/15 12:04:35;;;;;;;;;162.40;141.20;;;;;;;;5095854;28;8822;-72
2022/01/15 12:07:07;;;;;;;;;162.75;146.75;;;;;;;;5095471;28;8802;-73
2022/01/15 12:09:35;;;;;;;;;143.00;124.00;;;;;;;;5095663;28;11639;-74
2022/01/15 12:12:01;;;;;;;;;166.50;150.75;;;;;;;;5095461;28;8832;-74
2022/01/15 12:14:45;;;;;;;;;150.00;138.75;;;;;;;;5095877;28;8828;-73
2022/01/15 12:17:33;;;;;;;;;145.60;130.20;;;;;;;;5095701;28;8821;-74
2022/01/15 12:20:00;;;;;;;;;136.60;119.20;;;;;;;;5077876;28;8801;-74
2022/01/15 12:22:36;;;;;;;;;160.00;135.40;;;;;;;;5092372;28;8823;-73
2022/01/15 12:25:03;;;;;;;;;162.00;143.25;;;;;;;;5080596;28;8824;-74
2022/01/15 12:27:29;;;;;;;;;155.25;138.00;;;;;;;;5095831;28;8806;-74
2022/01/15 12:30:13;;;;;;;;;155.25;136.50;;;;;;;;5095369;28;8817;-74
2022/01/15 12:32:42;;;;;;;;;139.40;125.60;;;;;;;;5095399;28;8801;-74
2022/01/15 12:35:16;;;;;;;;;143.00;122.80;;;;;;;;5095391;28;8816;-74
2022/01/15 12:38:00;;;;;;;;;117.25;103.25;;;;;;;;5095320;28;8718;-74
2022/01/15 12:40:31;;;;;;;;;132.20;111.80;;;;;;;;5095596;28;8810;-74
2022/01/15 12:42:57;;;;;;;;;141.00;118.80;;;;;;;;5094252;28;8809;-75
2022/01/15 12:45:23;;;;;;;;;126.25;114.00;;;;;;;;5094656;28;8778;-76
2022/01/15 12:47:49;;;;;;;;;133.40;118.00;;;;;;;;5094151;28;8891;-75
2022/01/15 12:50:14;;;;;;;;;144.00;130.00;;;;;;;;5093499;28;8826;-74
2022/01/15 12:52:39;;;;;;;;;141.33;125.67;;;;;;;;5093631;28;8848;-75
2022/01/15 12:55:05;;;;;;;;;125.00;105.33;;;;;;;;5092770;28;8976;-75
2022/01/15 12:57:41;;;;;;;;;138.20;125.80;;;;;;;;5093183;28;8951;-75
2022/01/15 13:00:08;;;;;;;;;127.60;119.00;;;;;;;;5093238;28;9484;-76
2022/01/15 13:02:33;;;;;;;;;131.80;111.40;;;;;;;;5095425;28;8790;-75
2022/01/15 13:04:59;;;;;;;;;129.50;117.25;;;;;;;;5094457;28;8944;-76
2022/01/15 13:07:24;;;;;;;;;134.33;116.33;;;;;;;;5093567;28;8816;-75
2022/01/15 13:09:49;;;;;;;;;126.00;116.00;;;;;;;;5094835;28;8927;-76
2022/01/15 13:12:15;;;;;;;;;123.00;104.75;;;;;;;;5092906;28;8849;-75
2022/01/15 13:14:41;;;;;;;;;117.75;110.75;;;;;;;;5092799;28;8941;-76
2022/01/15 13:17:19;;;;;;;;;127.50;107.25;;;;;;;;5093619;28;8953;-75
2022/01/15 13:19:45;;;;;;;;;137.75;120.50;;;;;;;;5092634;28;8825;-74
2022/01/15 13:22:11;;;;;;;;;132.75;118.50;;;;;;;;5094186;28;8809;-75
2022/01/15 13:24:36;;;;;;;;;143.00;123.50;;;;;;;;5093325;28;8808;-75
2022/01/15 13:27:03;;;;;;;;;123.00;110.33;;;;;;;;5094524;28;8820;-75
2022/01/15 13:29:42;;;;;;;;;117.50;100.50;;;;;;;;5092588;28;8817;-75
2022/01/15 13:32:08;;;;;;;;;106.75;89.25;;;;;;;;5088075;28;8797;-75
2022/01/15 13:34:36;;;;;;;;;116.00;99.00;;;;;;;;5094055;28;8829;-75
2022/01/15 13:37:18;;;;;;;;;130.00;118.75;;;;;;;;5094068;28;8758;-75
2022/01/15 13:39:44;;;;;;;;;124.25;114.75;;;;;;;;5094640;28;8916;-75
2022/01/15 13:42:22;;;;;;;;;114.67;96.00;;;;;;;;5092137;28;9518;-74
2022/01/15 13:44:48;;;;;;;;;129.80;112.40;;;;;;;;5094032;28;8812;-74
2022/01/15 13:47:14;;;;;;;;;104.25;100.75;;;;;;;;5093092;28;9636;-74
2022/01/15 13:55:23;;;;;;;;;133.00;117.60;;;;;;;;5086161;28;8790;-75
2022/01/15 13:57:49;;;;;;;;;119.80;109.00;;;;;;;;5103741;28;8821;-75
2022/01/15 14:00:15;;;;;;;;;119.75;107.25;;;;;;;;5092218;28;8824;-74
2022/01/15 14:02:41;;;;;;;;;115.25;99.50;;;;;;;;5091219;28;8907;-74
2022/01/15 14:05:15;;;;;;;;;113.50;96.75;;;;;;;;5090302;28;8813;-74
2022/01/15 14:07:41;;;;;;;;;118.50;105.00;;;;;;;;5093968;28;8801;-74
2022/01/15 14:10:11;;;;;;;;;114.25;101.00;;;;;;;;5092613;28;11599;-74
2022/01/15 14:12:37;;;;;;;;;126.25;113.75;;;;;;;;5093557;28;8895;-73
2022/01/15 14:15:03;;;;;;;;;121.00;107.50;;;;;;;;5094043;28;8802;-73
2022/01/15 14:17:30;;;;;;;;;117.20;105.80;;;;;;;;5093963;28;9700;-73
2022/01/15 14:22:25;;;;;;;;;117.67;106.33;;;;;;;;5094075;28;8890;-73
2022/01/15 14:24:52;;;;;;;;;114.00;106.20;;;;;;;;5092246;28;8778;-73
2022/01/15 14:27:22;;;;;;;;;123.00;112.00;;;;;;;;5092933;28;8809;-72
2022/01/15 14:29:48;;;;;;;;;130.40;111.40;;;;;;;;5092966;28;8793;-73
2022/01/15 14:32:13;;;;;;;;;138.80;122.00;;;;;;;;5080161;28;8788;-75
2022/01/15 14:34:39;;;;;;;;;127.67;112.00;;;;;;;;5092179;28;8805;-75
2022/01/15 14:37:04;;;;;;;;;148.67;133.33;;;;;;;;5086491;28;9399;-75